Flight Track Log - Related Links

Times and Time Zones

All times are in EDT time to prevent confusion due to time zone crossing. See the SWA3678 flight status page for this flight to view local times or setup timezone preferences in your user account.

Time Position Orientation Groundspeed Altitude Reporting Facility
EDT Latitude Longitude Course Direction KTS MPH feet Rate Location/Type
Sat 11:41:14 AM 39.0967 -76.6133 149° Southeast 177 204 5,100  Level Washington Center
Sat 11:42:15 AM 39.0428 -76.5697 148° Southeast 206 237 8,000 3,124 Climbing Washington Center
Sat 11:43:15 AM 39.0036 -76.4972 125° Southeast 229 264 11,400 2,949 Climbing Washington Center
Sat 11:44:13 AM 39.0378 -76.3961 66° East 223 257 13,800 3,000 Climbing Washington Center
Sat 11:45:13 AM 39.0697 -76.2761 71° East 263 303 17,300 3,074 Climbing Washington Center
Sat 11:46:14 AM 39.0994 -76.1828 68° East 311 358 20,000 2,705 Climbing Washington Center
Sat 11:47:15 AM 39.1417 -76.0547 67° East 337 388 22,800 1,537 Climbing Washington Center
Sat 11:48:15 AM 39.1756 -75.9289 71° East 352 405 23,100 1,220 Climbing Washington Center
Sat 11:49:13 AM 39.2361 -75.8247 53° Northeast 357 411 25,200 1,475 Climbing Washington Center
Sat 11:50:13 AM 39.3114 -75.7283 45° Northeast 363 418 26,000 400 Climbing Washington Center
Sat 11:51:13 AM 39.3844 -75.6292 46° Northeast 368 423 26,000  Level Washington Center
Sat 11:52:15 AM 39.4594 -75.5350 44° Northeast 368 423 26,000 850 Level Washington Center
Sat 11:53:13 AM 39.5364 -75.4356 45° Northeast 373 429 27,700 1,513 Climbing Washington Center
Sat 11:54:14 AM 39.6153 -75.3331 45° Northeast 386 444 29,000 371 Climbing Washington Center
Sat 11:56:43 AM 39.8258 -75.0336 47° Northeast 429 494 29,000  Level New York Center
Sat 11:57:44 AM 39.9072 -74.9194 47° Northeast 435 501 29,000  Level New York Center
Sat 11:58:41 AM 39.9986 -74.8083 43° Northeast 440 506 29,000  Level New York Center
Sat 11:59:43 AM 40.0897 -74.7050 41° Northeast 429 494 29,000  Level New York Center
Sat 12:00:43 PM 40.1764 -74.5986 43° Northeast 429 494 29,000  Level New York Center
Sat 12:01:42 PM 40.2569 -74.4997 43° Northeast 429 494 29,000  Level New York Center
Sat 12:02:42 PM 40.3478 -74.3903 43° Northeast 429 494 29,000 -446 Level New York Center
Sat 12:03:43 PM 40.4386 -74.2833 42° Northeast 429 494 28,100 -958 Descending New York Center
Sat 12:04:41 PM 40.5269 -74.1786 42° Northeast 428 493 27,100 -1,024 Descending New York Center
Sat 12:07:08 PM 40.7336 -73.9356 42° Northeast 402 463 24,600 -899 Descending Boston Center
Sat 12:08:08 PM 40.8142 -73.8386 42° Northeast 395 455 24,000 -300 Descending Boston Center
Sat 12:09:08 PM 40.8944 -73.7417 42° Northeast 395 455 24,000 -300 Level Boston Center
Sat 12:10:08 PM 40.9747 -73.6525 40° Northeast 390 449 23,400 -500 Descending Boston Center
Sat 12:11:08 PM 41.0631 -73.5797 32° Northeast 380 437 23,000 -550 Descending Boston Center
Sat 12:12:08 PM 41.1450 -73.5067 34° Northeast 367 422 22,300 -900 Descending Boston Center
Sat 12:13:08 PM 41.2369 -73.4642 19° North 343 395 21,200 -1,050 Descending Boston Center
Sat 12:14:08 PM 41.3392 -73.4742 356° North 343 395 20,200 -1,000 Descending Boston Center
Sat 12:15:08 PM 41.4411 -73.4786 358° North 349 402 19,200 -950 Descending Boston Center
Sat 12:16:08 PM 41.5389 -73.4883 356° North 349 402 18,300 -850 Descending Boston Center
Sat 12:17:08 PM 41.6494 -73.4931 358° North 354 407 17,500 -900 Descending Boston Center
Sat 12:18:08 PM 41.7411 -73.5028 355° North 359 413 16,500 -750 Descending Boston Center
Sat 12:19:08 PM 41.8514 -73.5103 357° North 364 419 16,000 -1,050 Descending Boston Center
Sat 12:20:08 PM 41.9556 -73.5178 357° North 362 417 14,400 -1,818 Descending Boston Center
Sat 12:20:47 PM 42.0181 -73.5186 359° North 366 421 13,000 -2,300 Descending Boston Center
Sat 12:21:08 PM 42.0533 -73.5250 352° North 362 417 12,100 -2,375 Descending Boston Center
Sat 12:21:35 PM 42.1033 -73.5258 359° North 363 418 11,100 -1,100 Descending Boston Center
Sat 12:22:08 PM 42.1514 -73.5211 North 362 417 11,000  Descending Boston Center
Sat 12:22:36 PM 42.1953 -73.5133 North 324 373 11,100  Climbing Boston Center
Sat 12:23:08 PM 42.2411 -73.5225 352° North 343 395 11,000 -590 Descending Boston Center
Sat 12:23:37 PM 42.2761 -73.5428 337° Northwest 301 346 10,500 -1,700 Descending Boston Center
Sat 12:24:08 PM 42.3156 -73.5744 329° Northwest 302 348 9,300 -2,000 Descending Boston Center
Sat 12:24:37 PM 42.3486 -73.6003 330° Northwest 296 341 8,500 -2,000 Descending Boston Center
Sat 12:25:08 PM 42.3900 -73.6208 340° North 297 342 7,300 -1,912 Descending Boston Center
Sat 12:26:08 PM 42.4500 -73.6611 334° Northwest 278 320 5,600 -1,714 Descending Boston Center
Sat 12:26:39 PM 42.4978 -73.6931 334° Northwest 277 319 4,700 -1,200 Descending Boston Center
Sat 12:27:08 PM 42.5267 -73.7136 332° Northwest 272 313 4,400 -500 Descending Boston Center
Sat 12:27:39 PM 42.5556 -73.7339 333° Northwest 233 268 4,200 -900 Descending Boston Center
Sat 12:28:08 PM 42.5742 -73.7456 335° Northwest 238 274 3,500 -1,279 Descending Boston Center
Sat 12:28:40 PM 42.6094 -73.7744 329° Northwest 204 235 2,900 -900 Descending Boston Center
Sat 12:29:08 PM 42.6217 -73.7803 341° North 222 255 2,600 -984 Descending Boston Center
Sat 12:29:41 PM 42.6569 -73.8008 337° Northwest 184 212 1,900 -957 Descending Boston Center
Sat 12:30:42 PM 42.6986 -73.8044 356° North 141 162 1,100 -787 Descending Boston Center

Login

Don't have an account? Register now (free) for customized features, flight alerts, and more!